sensor_id;sensor_type;location;lat;lon;timestamp;pressure;altitude;pressure_sealevel;temperature;humidity
72465;BME280;60471;52.150;4.508;2024-01-06T00:02:24;100172.09;;;7.75;100.00
72465;BME280;60471;52.150;4.508;2024-01-06T00:04:51;100173.66;;;7.79;100.00
72465;BME280;60471;52.150;4.508;2024-01-06T00:07:17;100176.06;;;7.65;100.00
72465;BME280;60471;52.150;4.508;2024-01-06T00:09:44;100168.97;;;7.67;100.00
72465;BME280;60471;52.150;4.508;2024-01-06T00:12:10;100174.06;;;7.70;100.00
72465;BME280;60471;52.150;4.508;2024-01-06T00:14:36;100176.41;;;7.57;100.00
72465;BME280;60471;52.150;4.508;2024-01-06T00:17:03;100181.19;;;7.68;100.00
72465;BME280;60471;52.150;4.508;2024-01-06T00:19:29;100188.19;;;7.67;100.00
72465;BME280;60471;52.150;4.508;2024-01-06T00:21:55;100180.31;;;7.67;100.00
72465;BME280;60471;52.150;4.508;2024-01-06T00:24:21;100191.91;;;7.63;100.00
72465;BME280;60471;52.150;4.508;2024-01-06T00:26:48;100191.56;;;7.71;100.00
72465;BME280;60471;52.150;4.508;2024-01-06T00:29:14;100205.09;;;7.62;100.00
72465;BME280;60471;52.150;4.508;2024-01-06T00:31:40;100193.75;;;7.61;100.00
72465;BME280;60471;52.150;4.508;2024-01-06T00:34:06;100204.72;;;7.69;100.00
72465;BME280;60471;52.150;4.508;2024-01-06T00:36:32;100196.50;;;7.77;100.00
72465;BME280;60471;52.150;4.508;2024-01-06T00:38:59;100203.09;;;7.67;100.00
72465;BME280;60471;52.150;4.508;2024-01-06T00:41:25;100207.72;;;7.80;100.00
72465;BME280;60471;52.150;4.508;2024-01-06T00:43:52;100207.44;;;7.68;100.00
72465;BME280;60471;52.150;4.508;2024-01-06T00:46:18;100213.81;;;7.81;100.00
72465;BME280;60471;52.150;4.508;2024-01-06T00:48:44;100216.22;;;7.67;100.00
72465;BME280;60471;52.150;4.508;2024-01-06T00:51:10;100209.13;;;7.69;100.00
72465;BME280;60471;52.150;4.508;2024-01-06T00:53:36;100218.34;;;7.59;100.00
72465;BME280;60471;52.150;4.508;2024-01-06T00:56:03;100215.47;;;7.65;100.00
72465;BME280;60471;52.150;4.508;2024-01-06T00:58:29;100220.06;;;7.60;100.00
72465;BME280;60471;52.150;4.508;2024-01-06T01:00:55;100227.81;;;7.63;100.00
72465;BME280;60471;52.150;4.508;2024-01-06T01:03:22;100225.63;;;7.72;100.00
72465;BME280;60471;52.150;4.508;2024-01-06T01:05:48;100234.97;;;7.78;100.00
72465;BME280;60471;52.150;4.508;2024-01-06T01:08:14;100233.50;;;7.72;100.00
72465;BME280;60471;52.150;4.508;2024-01-06T01:10:40;100233.84;;;7.65;100.00
72465;BME280;60471;52.150;4.508;2024-01-06T01:13:06;100237.81;;;7.73;100.00
72465;BME280;60471;52.150;4.508;2024-01-06T01:15:33;100250.72;;;7.59;100.00
72465;BME280;60471;52.150;4.508;2024-01-06T01:17:59;100257.22;;;7.71;100.00
72465;BME280;60471;52.150;4.508;2024-01-06T01:20:26;100258.41;;;7.64;100.00
72465;BME280;60471;52.150;4.508;2024-01-06T01:22:52;100258.00;;;7.73;100.00
72465;BME280;60471;52.150;4.508;2024-01-06T01:25:18;100253.56;;;7.54;100.00
72465;BME280;60471;52.150;4.508;2024-01-06T01:27:44;100270.44;;;7.49;100.00
72465;BME280;60471;52.150;4.508;2024-01-06T01:30:11;100271.38;;;7.28;100.00
72465;BME280;60471;52.150;4.508;2024-01-06T01:32:37;100279.75;;;7.15;100.00
72465;BME280;60471;52.150;4.508;2024-01-06T01:35:04;100285.16;;;7.12;100.00
72465;BME280;60471;52.150;4.508;2024-01-06T01:37:30;100298.63;;;7.03;100.00
72465;BME280;60471;52.150;4.508;2024-01-06T01:39:57;100287.63;;;6.95;100.00
72465;BME280;60471;52.150;4.508;2024-01-06T01:42:23;100285.97;;;6.92;100.00
72465;BME280;60471;52.150;4.508;2024-01-06T01:44:49;100296.75;;;7.07;100.00
72465;BME280;60471;52.150;4.508;2024-01-06T01:47:16;100313.34;;;7.07;100.00
72465;BME280;60471;52.150;4.508;2024-01-06T01:49:47;100313.88;;;7.15;100.00
72465;BME280;60471;52.150;4.508;2024-01-06T01:52:14;100313.06;;;7.13;100.00
72465;BME280;60471;52.150;4.508;2024-01-06T01:54:42;100318.84;;;7.01;100.00
72465;BME280;60471;52.150;4.508;2024-01-06T01:57:11;100324.28;;;6.96;100.00
72465;BME280;60471;52.150;4.508;2024-01-06T01:59:39;100329.81;;;7.11;100.00
72465;BME280;60471;52.150;4.508;2024-01-06T02:02:06;100335.38;;;7.03;100.00
72465;BME280;60471;52.150;4.508;2024-01-06T02:04:34;100333.28;;;7.11;100.00
72465;BME280;60471;52.150;4.508;2024-01-06T02:07:00;100325.88;;;7.21;100.00
72465;BME280;60471;52.150;4.508;2024-01-06T02:09:27;100329.56;;;7.17;100.00
72465;BME280;60471;52.150;4.508;2024-01-06T02:11:56;100335.91;;;7.11;100.00
72465;BME280;60471;52.150;4.508;2024-01-06T02:14:23;100337.47;;;7.15;100.00
72465;BME280;60471;52.150;4.508;2024-01-06T02:16:50;100335.97;;;7.10;100.00
72465;BME280;60471;52.150;4.508;2024-01-06T02:19:16;100345.56;;;7.11;100.00
72465;BME280;60471;52.150;4.508;2024-01-06T02:21:52;100336.50;;;7.18;100.00
72465;BME280;60471;52.150;4.508;2024-01-06T02:24:20;100349.81;;;7.13;100.00
72465;BME280;60471;52.150;4.508;2024-01-06T02:26:47;100347.56;;;7.04;100.00
72465;BME280;60471;52.150;4.508;2024-01-06T02:29:13;100352.25;;;7.18;100.00
72465;BME280;60471;52.150;4.508;2024-01-06T02:31:39;100351.28;;;7.20;100.00
72465;BME280;60471;52.150;4.508;2024-01-06T02:34:05;100346.19;;;7.16;100.00
72465;BME280;60471;52.150;4.508;2024-01-06T02:36:31;100354.28;;;7.11;100.00
72465;BME280;60471;52.150;4.508;2024-01-06T02:38:58;100354.28;;;7.11;100.00
72465;BME280;60471;52.150;4.508;2024-01-06T02:41:24;100360.25;;;6.93;100.00
72465;BME280;60471;52.150;4.508;2024-01-06T02:43:51;100365.34;;;6.97;100.00
72465;BME280;60471;52.150;4.508;2024-01-06T02:46:17;100364.84;;;6.88;100.00
72465;BME280;60471;52.150;4.508;2024-01-06T02:48:43;100370.09;;;6.88;100.00
72465;BME280;60471;52.150;4.508;2024-01-06T02:51:11;100381.56;;;7.07;100.00
72465;BME280;60471;52.150;4.508;2024-01-06T02:53:38;100382.59;;;7.03;100.00
72465;BME280;60471;52.150;4.508;2024-01-06T02:56:09;100384.25;;;7.06;100.00
72465;BME280;60471;52.150;4.508;2024-01-06T02:58:37;100389.16;;;7.13;100.00
72465;BME280;60471;52.150;4.508;2024-01-06T03:01:03;100386.13;;;7.02;100.00
72465;BME280;60471;52.150;4.508;2024-01-06T03:03:29;100387.97;;;7.00;100.00
72465;BME280;60471;52.150;4.508;2024-01-06T03:05:55;100392.34;;;7.21;100.00
72465;BME280;60471;52.150;4.508;2024-01-06T03:08:22;100391.00;;;7.11;100.00
72465;BME280;60471;52.150;4.508;2024-01-06T03:10:49;100391.44;;;7.01;100.00
72465;BME280;60471;52.150;4.508;2024-01-06T03:13:15;100401.22;;;6.97;100.00
72465;BME280;60471;52.150;4.508;2024-01-06T03:15:41;100411.06;;;6.90;100.00
72465;BME280;60471;52.150;4.508;2024-01-06T03:18:07;100413.53;;;6.95;100.00
72465;BME280;60471;52.150;4.508;2024-01-06T03:20:34;100398.88;;;6.89;100.00
72465;BME280;60471;52.150;4.508;2024-01-06T03:23:01;100404.34;;;6.83;100.00
72465;BME280;60471;52.150;4.508;2024-01-06T03:25:27;100404.84;;;6.71;100.00
72465;BME280;60471;52.150;4.508;2024-01-06T03:27:53;100412.00;;;6.89;100.00
72465;BME280;60471;52.150;4.508;2024-01-06T03:30:19;100411.88;;;6.92;100.00
72465;BME280;60471;52.150;4.508;2024-01-06T03:32:45;100408.81;;;7.03;100.00
72465;BME280;60471;52.150;4.508;2024-01-06T03:35:11;100408.31;;;6.93;100.00
72465;BME280;60471;52.150;4.508;2024-01-06T03:37:38;100414.31;;;6.75;100.00
72465;BME280;60471;52.150;4.508;2024-01-06T03:40:04;100424.59;;;6.80;100.00
72465;BME280;60471;52.150;4.508;2024-01-06T03:42:31;100419.50;;;6.77;100.00
72465;BME280;60471;52.150;4.508;2024-01-06T03:44:57;100427.16;;;6.81;100.00
72465;BME280;60471;52.150;4.508;2024-01-06T03:47:24;100412.97;;;6.87;100.00
72465;BME280;60471;52.150;4.508;2024-01-06T03:49:50;100421.91;;;6.81;100.00
72465;BME280;60471;52.150;4.508;2024-01-06T03:52:16;100432.13;;;6.89;100.00
72465;BME280;60471;52.150;4.508;2024-01-06T03:54:42;100430.41;;;6.88;100.00
72465;BME280;60471;52.150;4.508;2024-01-06T03:57:08;100431.97;;;6.70;100.00
72465;BME280;60471;52.150;4.508;2024-01-06T03:59:35;100443.94;;;6.77;100.00
72465;BME280;60471;52.150;4.508;2024-01-06T04:02:01;100442.41;;;6.72;100.00
72465;BME280;60471;52.150;4.508;2024-01-06T04:04:27;100448.34;;;6.77;100.00
72465;BME280;60471;52.150;4.508;2024-01-06T04:06:54;100447.06;;;6.87;100.00
72465;BME280;60471;52.150;4.508;2024-01-06T04:09:20;100454.19;;;6.83;100.00
72465;BME280;60471;52.150;4.508;2024-01-06T04:11:46;100459.56;;;6.80;100.00
72465;BME280;60471;52.150;4.508;2024-01-06T04:14:12;100454.44;;;6.77;100.00
72465;BME280;60471;52.150;4.508;2024-01-06T04:16:39;100468.22;;;6.82;100.00
72465;BME280;60471;52.150;4.508;2024-01-06T04:19:05;100476.72;;;6.89;100.00
72465;BME280;60471;52.150;4.508;2024-01-06T04:21:33;100469.06;;;6.83;100.00
72465;BME280;60471;52.150;4.508;2024-01-06T04:23:59;100465.84;;;6.76;100.00
72465;BME280;60471;52.150;4.508;2024-01-06T04:26:26;100475.47;;;6.76;100.00
72465;BME280;60471;52.150;4.508;2024-01-06T04:28:52;100472.94;;;6.73;100.00
72465;BME280;60471;52.150;4.508;2024-01-06T04:31:18;100476.06;;;6.82;100.00
72465;BME280;60471;52.150;4.508;2024-01-06T04:33:44;100483.16;;;6.80;100.00
72465;BME280;60471;52.150;4.508;2024-01-06T04:36:11;100486.50;;;6.60;100.00
72465;BME280;60471;52.150;4.508;2024-01-06T04:38:37;100491.75;;;6.60;100.00
72465;BME280;60471;52.150;4.508;2024-01-06T04:41:03;100488.81;;;6.69;100.00
72465;BME280;60471;52.150;4.508;2024-01-06T04:43:29;100498.31;;;6.72;100.00
72465;BME280;60471;52.150;4.508;2024-01-06T04:45:55;100493.66;;;6.57;100.00
72465;BME280;60471;52.150;4.508;2024-01-06T04:48:23;100487.94;;;6.69;100.00
72465;BME280;60471;52.150;4.508;2024-01-06T04:50:50;100485.44;;;6.43;100.00
72465;BME280;60471;52.150;4.508;2024-01-06T04:53:16;100503.72;;;6.44;100.00
72465;BME280;60471;52.150;4.508;2024-01-06T04:55:42;100504.06;;;6.58;100.00
72465;BME280;60471;52.150;4.508;2024-01-06T04:58:08;100499.53;;;6.63;100.00
72465;BME280;60471;52.150;4.508;2024-01-06T05:00:34;100505.06;;;6.56;100.00
72465;BME280;60471;52.150;4.508;2024-01-06T05:03:02;100507.56;;;6.59;100.00
72465;BME280;60471;52.150;4.508;2024-01-06T05:05:28;100502.44;;;6.56;100.00
72465;BME280;60471;52.150;4.508;2024-01-06T05:07:54;100507.84;;;6.51;100.00
72465;BME280;60471;52.150;4.508;2024-01-06T05:10:20;100509.31;;;6.58;100.00
72465;BME280;60471;52.150;4.508;2024-01-06T05:12:46;100518.75;;;6.64;100.00
72465;BME280;60471;52.150;4.508;2024-01-06T05:15:13;100522.81;;;6.71;100.00
72465;BME280;60471;52.150;4.508;2024-01-06T05:17:39;100523.28;;;6.59;100.00
72465;BME280;60471;52.150;4.508;2024-01-06T05:20:06;100527.91;;;6.52;100.00
72465;BME280;60471;52.150;4.508;2024-01-06T05:22:32;100530.34;;;6.57;100.00
72465;BME280;60471;52.150;4.508;2024-01-06T05:24:59;100534.72;;;6.56;100.00
72465;BME280;60471;52.150;4.508;2024-01-06T05:27:25;100535.84;;;6.74;100.00
72465;BME280;60471;52.150;4.508;2024-01-06T05:29:51;100537.03;;;6.65;100.00
72465;BME280;60471;52.150;4.508;2024-01-06T05:32:17;100542.41;;;6.62;100.00
72465;BME280;60471;52.150;4.508;2024-01-06T05:34:43;100548.50;;;6.63;100.00
72465;BME280;60471;52.150;4.508;2024-01-06T05:37:10;100545.16;;;6.58;100.00
72465;BME280;60471;52.150;4.508;2024-01-06T05:39:38;100537.53;;;6.52;100.00
72465;BME280;60471;52.150;4.508;2024-01-06T05:42:06;100546.41;;;6.48;100.00
72465;BME280;60471;52.150;4.508;2024-01-06T05:44:35;100540.38;;;6.46;100.00
72465;BME280;60471;52.150;4.508;2024-01-06T05:47:03;100547.63;;;6.37;100.00
72465;BME280;60471;52.150;4.508;2024-01-06T05:49:30;100557.75;;;6.48;100.00
72465;BME280;60471;52.150;4.508;2024-01-06T05:51:56;100559.31;;;6.54;100.00
72465;BME280;60471;52.150;4.508;2024-01-06T05:54:22;100557.97;;;6.42;100.00
72465;BME280;60471;52.150;4.508;2024-01-06T05:56:48;100563.16;;;6.44;100.00
72465;BME280;60471;52.150;4.508;2024-01-06T05:59:14;100570.53;;;6.32;100.00
72465;BME280;60471;52.150;4.508;2024-01-06T06:01:41;100577.31;;;6.38;100.00
72465;BME280;60471;52.150;4.508;2024-01-06T06:04:07;100581.63;;;6.41;100.00
72465;BME280;60471;52.150;4.508;2024-01-06T06:06:34;100585.09;;;6.41;100.00
72465;BME280;60471;52.150;4.508;2024-01-06T06:09:00;100591.38;;;6.35;100.00
72465;BME280;60471;52.150;4.508;2024-01-06T06:11:27;100596.25;;;6.21;100.00
72465;BME280;60471;52.150;4.508;2024-01-06T06:13:53;100604.53;;;6.34;100.00
72465;BME280;60471;52.150;4.508;2024-01-06T06:16:19;100600.53;;;6.49;100.00
72465;BME280;60471;52.150;4.508;2024-01-06T06:18:45;100601.00;;;6.35;100.00
72465;BME280;60471;52.150;4.508;2024-01-06T06:21:12;100613.38;;;6.31;100.00
72465;BME280;60471;52.150;4.508;2024-01-06T06:23:38;100614.13;;;6.35;100.00
72465;BME280;60471;52.150;4.508;2024-01-06T06:26:05;100620.28;;;6.34;100.00
72465;BME280;60471;52.150;4.508;2024-01-06T06:28:32;100625.06;;;6.21;100.00
72465;BME280;60471;52.150;4.508;2024-01-06T06:31:01;100634.13;;;6.37;100.00
72465;BME280;60471;52.150;4.508;2024-01-06T06:33:27;100634.47;;;6.53;100.00
72465;BME280;60471;52.150;4.508;2024-01-06T06:35:54;100629.53;;;6.44;100.00
72465;BME280;60471;52.150;4.508;2024-01-06T06:38:20;100642.88;;;6.36;100.00
72465;BME280;60471;52.150;4.508;2024-01-06T06:40:47;100642.13;;;6.33;100.00
72465;BME280;60471;52.150;4.508;2024-01-06T06:43:14;100650.34;;;6.22;100.00
72465;BME280;60471;52.150;4.508;2024-01-06T06:45:40;100649.19;;;6.31;100.00
72465;BME280;60471;52.150;4.508;2024-01-06T06:48:06;100650.47;;;6.19;100.00
72465;BME280;60471;52.150;4.508;2024-01-06T06:50:33;100657.06;;;6.31;100.00
72465;BME280;60471;52.150;4.508;2024-01-06T06:52:59;100655.53;;;6.24;100.00
72465;BME280;60471;52.150;4.508;2024-01-06T06:55:26;100660.03;;;6.20;100.00
72465;BME280;60471;52.150;4.508;2024-01-06T06:57:53;100659.94;;;6.23;100.00
72465;BME280;60471;52.150;4.508;2024-01-06T07:00:19;100663.91;;;6.35;100.00
72465;BME280;60471;52.150;4.508;2024-01-06T07:02:46;100674.19;;;6.41;100.00
72465;BME280;60471;52.150;4.508;2024-01-06T07:05:13;100674.56;;;6.55;100.00
72465;BME280;60471;52.150;4.508;2024-01-06T07:07:39;100673.84;;;6.52;100.00
72465;BME280;60471;52.150;4.508;2024-01-06T07:10:06;100681.22;;;6.41;100.00
72465;BME280;60471;52.150;4.508;2024-01-06T07:12:33;100681.75;;;6.24;100.00
72465;BME280;60471;52.150;4.508;2024-01-06T07:14:59;100697.31;;;6.28;100.00
72465;BME280;60471;52.150;4.508;2024-01-06T07:17:25;100694.84;;;6.24;100.00
72465;BME280;60471;52.150;4.508;2024-01-06T07:19:52;100697.78;;;6.41;100.00
72465;BME280;60471;52.150;4.508;2024-01-06T07:22:20;100697.97;;;6.08;100.00
72465;BME280;60471;52.150;4.508;2024-01-06T07:24:46;100710.53;;;5.97;100.00
72465;BME280;60471;52.150;4.508;2024-01-06T07:27:12;100714.44;;;6.12;100.00
72465;BME280;60471;52.150;4.508;2024-01-06T07:29:39;100717.84;;;6.14;100.00
72465;BME280;60471;52.150;4.508;2024-01-06T07:32:05;100714.09;;;6.23;100.00
72465;BME280;60471;52.150;4.508;2024-01-06T07:34:34;100720.88;;;6.30;100.00
72465;BME280;60471;52.150;4.508;2024-01-06T07:37:00;100715.97;;;6.18;100.00
72465;BME280;60471;52.150;4.508;2024-01-06T07:39:26;100719.03;;;6.04;100.00
72465;BME280;60471;52.150;4.508;2024-01-06T07:41:53;100724.56;;;6.23;100.00
72465;BME280;60471;52.150;4.508;2024-01-06T07:44:19;100727.84;;;6.29;100.00
72465;BME280;60471;52.150;4.508;2024-01-06T07:46:51;100731.88;;;6.39;100.00
72465;BME280;60471;52.150;4.508;2024-01-06T07:49:18;100738.69;;;6.45;100.00
72465;BME280;60471;52.150;4.508;2024-01-06T07:51:45;100747.81;;;6.33;100.00
72465;BME280;60471;52.150;4.508;2024-01-06T07:54:11;100755.72;;;6.32;100.00
72465;BME280;60471;52.150;4.508;2024-01-06T07:56:37;100767.75;;;6.37;100.00
72465;BME280;60471;52.150;4.508;2024-01-06T07:59:04;100766.44;;;6.24;100.00
72465;BME280;60471;52.150;4.508;2024-01-06T08:01:31;100765.91;;;6.41;100.00
72465;BME280;60471;52.150;4.508;2024-01-06T08:03:57;100775.22;;;6.23;100.00
72465;BME280;60471;52.150;4.508;2024-01-06T08:06:24;100788.94;;;6.31;100.00
72465;BME280;60471;52.150;4.508;2024-01-06T08:08:51;100783.81;;;6.27;100.00
72465;BME280;60471;52.150;4.508;2024-01-06T08:11:17;100792.13;;;6.13;100.00
72465;BME280;60471;52.150;4.508;2024-01-06T08:13:43;100791.31;;;6.11;100.00
72465;BME280;60471;52.150;4.508;2024-01-06T08:16:09;100794.50;;;6.21;100.00
72465;BME280;60471;52.150;4.508;2024-01-06T08:18:36;100797.94;;;6.23;100.00
72465;BME280;60471;52.150;4.508;2024-01-06T08:21:02;100796.00;;;6.28;100.00
72465;BME280;60471;52.150;4.508;2024-01-06T08:23:28;100810.97;;;6.24;100.00
72465;BME280;60471;52.150;4.508;2024-01-06T08:25:55;100811.94;;;6.22;100.00
72465;BME280;60471;52.150;4.508;2024-01-06T08:28:22;100821.31;;;6.29;100.00
72465;BME280;60471;52.150;4.508;2024-01-06T08:30:49;100821.47;;;6.52;100.00
72465;BME280;60471;52.150;4.508;2024-01-06T08:33:15;100826.38;;;6.35;100.00
72465;BME280;60471;52.150;4.508;2024-01-06T08:35:44;100824.66;;;6.34;100.00
72465;BME280;60471;52.150;4.508;2024-01-06T08:38:10;100828.13;;;6.34;100.00
72465;BME280;60471;52.150;4.508;2024-01-06T08:40:36;100832.63;;;6.31;100.00
72465;BME280;60471;52.150;4.508;2024-01-06T08:43:03;100831.22;;;6.47;100.00
72465;BME280;60471;52.150;4.508;2024-01-06T08:45:29;100840.13;;;6.43;100.00
72465;BME280;60471;52.150;4.508;2024-01-06T08:47:55;100842.47;;;6.51;100.00
72465;BME280;60471;52.150;4.508;2024-01-06T08:50:22;100851.50;;;6.42;100.00
72465;BME280;60471;52.150;4.508;2024-01-06T08:52:48;100852.50;;;6.66;100.00
72465;BME280;60471;52.150;4.508;2024-01-06T08:55:14;100855.72;;;6.46;100.00
72465;BME280;60471;52.150;4.508;2024-01-06T08:57:42;100856.69;;;6.44;100.00
72465;BME280;60471;52.150;4.508;2024-01-06T09:00:08;100857.06;;;6.59;100.00
72465;BME280;60471;52.150;4.508;2024-01-06T09:02:36;100853.69;;;6.56;100.00
72465;BME280;60471;52.150;4.508;2024-01-06T09:05:02;100861.13;;;6.42;100.00
72465;BME280;60471;52.150;4.508;2024-01-06T09:07:30;100866.38;;;6.40;100.00
72465;BME280;60471;52.150;4.508;2024-01-06T09:09:56;100866.84;;;6.54;100.00
72465;BME280;60471;52.150;4.508;2024-01-06T09:12:22;100868.97;;;6.69;100.00
72465;BME280;60471;52.150;4.508;2024-01-06T09:14:48;100872.00;;;6.57;100.00
72465;BME280;60471;52.150;4.508;2024-01-06T09:17:14;100873.09;;;6.78;100.00
72465;BME280;60471;52.150;4.508;2024-01-06T09:19:41;100881.81;;;6.79;100.00
72465;BME280;60471;52.150;4.508;2024-01-06T09:22:07;100882.91;;;6.72;100.00
72465;BME280;60471;52.150;4.508;2024-01-06T09:24:33;100883.09;;;6.65;100.00
72465;BME280;60471;52.150;4.508;2024-01-06T09:27:00;100890.88;;;6.68;100.00
72465;BME280;60471;52.150;4.508;2024-01-06T09:29:26;100883.53;;;6.80;100.00
72465;BME280;60471;52.150;4.508;2024-01-06T09:31:52;100902.09;;;6.74;100.00
72465;BME280;60471;52.150;4.508;2024-01-06T09:34:18;100908.59;;;6.88;100.00
72465;BME280;60471;52.150;4.508;2024-01-06T09:36:44;100906.09;;;6.85;100.00
72465;BME280;60471;52.150;4.508;2024-01-06T09:39:11;100916.31;;;7.21;100.00
72465;BME280;60471;52.150;4.508;2024-01-06T09:41:37;100909.59;;;7.39;100.00
72465;BME280;60471;52.150;4.508;2024-01-06T09:44:03;100915.22;;;7.28;100.00
72465;BME280;60471;52.150;4.508;2024-01-06T09:46:30;100913.38;;;7.30;100.00
72465;BME280;60471;52.150;4.508;2024-01-06T09:48:58;100922.69;;;7.12;100.00
72465;BME280;60471;52.150;4.508;2024-01-06T09:51:25;100923.44;;;6.89;100.00
72465;BME280;60471;52.150;4.508;2024-01-06T09:53:59;100930.56;;;6.56;100.00
72465;BME280;60471;52.150;4.508;2024-01-06T09:56:28;100926.44;;;6.77;100.00
72465;BME280;60471;52.150;4.508;2024-01-06T09:58:56;100943.31;;;6.68;100.00
72465;BME280;60471;52.150;4.508;2024-01-06T10:01:22;100956.31;;;6.73;100.00
72465;BME280;60471;52.150;4.508;2024-01-06T10:03:48;100950.53;;;6.60;100.00
72465;BME280;60471;52.150;4.508;2024-01-06T10:06:15;100952.72;;;6.76;100.00
72465;BME280;60471;52.150;4.508;2024-01-06T10:08:43;100953.94;;;6.92;100.00
72465;BME280;60471;52.150;4.508;2024-01-06T10:11:14;100955.97;;;7.12;100.00
72465;BME280;60471;52.150;4.508;2024-01-06T10:13:41;100963.81;;;7.12;100.00
72465;BME280;60471;52.150;4.508;2024-01-06T10:16:07;100961.28;;;6.81;100.00
72465;BME280;60471;52.150;4.508;2024-01-06T10:18:33;100966.25;;;6.90;100.00
72465;BME280;60471;52.150;4.508;2024-01-06T10:21:05;100959.41;;;6.86;100.00
72465;BME280;60471;52.150;4.508;2024-01-06T10:23:33;100971.81;;;6.79;100.00
72465;BME280;60471;52.150;4.508;2024-01-06T10:25:59;100966.38;;;7.41;100.00
72465;BME280;60471;52.150;4.508;2024-01-06T10:28:26;100967.53;;;7.59;100.00
72465;BME280;60471;52.150;4.508;2024-01-06T10:30:53;100966.53;;;7.63;100.00
72465;BME280;60471;52.150;4.508;2024-01-06T10:33:21;100972.38;;;7.45;100.00
72465;BME280;60471;52.150;4.508;2024-01-06T10:35:49;100971.22;;;6.99;100.00
72465;BME280;60471;52.150;4.508;2024-01-06T10:38:15;100976.00;;;6.86;100.00
72465;BME280;60471;52.150;4.508;2024-01-06T10:40:59;100980.34;;;6.87;100.00
72465;BME280;60471;52.150;4.508;2024-01-06T10:43:27;100982.16;;;6.85;100.00
72465;BME280;60471;52.150;4.508;2024-01-06T10:45:58;100990.81;;;6.87;100.00
72465;BME280;60471;52.150;4.508;2024-01-06T10:48:31;100993.72;;;6.78;100.00
72465;BME280;60471;52.150;4.508;2024-01-06T10:50:59;100998.78;;;6.84;100.00
72465;BME280;60471;52.150;4.508;2024-01-06T10:53:27;100997.25;;;6.77;100.00
72465;BME280;60471;52.150;4.508;2024-01-06T10:55:54;100996.72;;;6.95;100.00
72465;BME280;60471;52.150;4.508;2024-01-06T10:58:22;100997.47;;;6.99;100.00
72465;BME280;60471;52.150;4.508;2024-01-06T11:00:48;101001.00;;;6.98;100.00
72465;BME280;60471;52.150;4.508;2024-01-06T11:03:15;100990.78;;;7.70;100.00
72465;BME280;60471;52.150;4.508;2024-01-06T11:05:44;100996.25;;;8.15;100.00
72465;BME280;60471;52.150;4.508;2024-01-06T11:08:11;101009.91;;;7.75;100.00
72465;BME280;60471;52.150;4.508;2024-01-06T11:10:38;101005.75;;;7.68;100.00
72465;BME280;60471;52.150;4.508;2024-01-06T11:13:21;101008.84;;;7.54;100.00
72465;BME280;60471;52.150;4.508;2024-01-06T11:15:49;101009.09;;;7.73;100.00
72465;BME280;60471;52.150;4.508;2024-01-06T11:18:37;101005.88;;;7.65;100.00
72465;BME280;60471;52.150;4.508;2024-01-06T11:23:43;101003.03;;;10.22;100.00
72465;BME280;60471;52.150;4.508;2024-01-06T11:26:10;101002.88;;;10.05;100.00
72465;BME280;60471;52.150;4.508;2024-01-06T11:28:46;101004.75;;;9.39;100.00
72465;BME280;60471;52.150;4.508;2024-01-06T11:31:13;101015.59;;;8.62;100.00
72465;BME280;60471;52.150;4.508;2024-01-06T11:33:46;101015.66;;;8.11;100.00
72465;BME280;60471;52.150;4.508;2024-01-06T11:36:15;101019.38;;;7.79;100.00
72465;BME280;60471;52.150;4.508;2024-01-06T11:38:41;101018.97;;;7.91;100.00
72465;BME280;60471;52.150;4.508;2024-01-06T11:41:50;101024.84;;;7.99;100.00
72465;BME280;60471;52.150;4.508;2024-01-06T11:44:20;101015.78;;;8.08;100.00
72465;BME280;60471;52.150;4.508;2024-01-06T11:46:48;101020.25;;;7.53;100.00
72465;BME280;60471;52.150;4.508;2024-01-06T11:49:15;101017.41;;;7.59;100.00
72465;BME280;60471;52.150;4.508;2024-01-06T11:51:42;101023.56;;;7.58;100.00
72465;BME280;60471;52.150;4.508;2024-01-06T11:54:09;101015.78;;;7.29;100.00
72465;BME280;60471;52.150;4.508;2024-01-06T11:56:38;101020.72;;;7.39;100.00
72465;BME280;60471;52.150;4.508;2024-01-06T11:59:05;101026.56;;;7.47;100.00
72465;BME280;60471;52.150;4.508;2024-01-06T12:01:38;101026.03;;;7.36;100.00
72465;BME280;60471;52.150;4.508;2024-01-06T12:04:06;101022.38;;;7.42;100.00
72465;BME280;60471;52.150;4.508;2024-01-06T12:06:33;101026.22;;;7.84;100.00
72465;BME280;60471;52.150;4.508;2024-01-06T12:09:06;101018.56;;;8.03;100.00
72465;BME280;60471;52.150;4.508;2024-01-06T12:11:34;101015.47;;;8.17;100.00
72465;BME280;60471;52.150;4.508;2024-01-06T12:14:00;101020.84;;;8.14;100.00
72465;BME280;60471;52.150;4.508;2024-01-06T12:16:26;101020.34;;;7.76;100.00
72465;BME280;60471;52.150;4.508;2024-01-06T12:18:53;101019.50;;;7.49;100.00
72465;BME280;60471;52.150;4.508;2024-01-06T12:21:25;101027.06;;;7.32;100.00
72465;BME280;60471;52.150;4.508;2024-01-06T12:23:52;101024.72;;;7.23;100.00
72465;BME280;60471;52.150;4.508;2024-01-06T12:26:19;101026.91;;;7.09;100.00
72465;BME280;60471;52.150;4.508;2024-01-06T12:28:47;101029.84;;;7.28;100.00
72465;BME280;60471;52.150;4.508;2024-01-06T12:31:15;101030.09;;;7.18;100.00
72465;BME280;60471;52.150;4.508;2024-01-06T12:33:42;101024.81;;;7.20;100.00
72465;BME280;60471;52.150;4.508;2024-01-06T12:36:08;101021.91;;;7.29;100.00
72465;BME280;60471;52.150;4.508;2024-01-06T12:38:37;101017.31;;;7.36;100.00
72465;BME280;60471;52.150;4.508;2024-01-06T12:41:04;101033.66;;;7.16;100.00
72465;BME280;60471;52.150;4.508;2024-01-06T12:43:31;101031.53;;;7.29;100.00
72465;BME280;60471;52.150;4.508;2024-01-06T12:45:57;101025.69;;;7.47;100.00
72465;BME280;60471;52.150;4.508;2024-01-06T12:48:24;101025.59;;;8.76;100.00
72465;BME280;60471;52.150;4.508;2024-01-06T12:50:50;101035.88;;;8.34;100.00
72465;BME280;60471;52.150;4.508;2024-01-06T12:53:16;101037.13;;;7.99;100.00